Time;durP1;ratioP1;P1;durP2;ratioP2;P2;SDS_P1;SDS_P2;PMS_P1;PMS_P2;Temp;Humidity;BMP_temperature;BMP_pressure;BME280_temperature;BME280_humidity;BME280_pressure;Samples;Min_cycle;Max_cycle;Signal;HPM_P1;HPM_P2
2021/06/10 00:00:16;;;;;;;12.80;7.80;;;20.70;77.50;;;;;;5053386;28;20534;-49
2021/06/10 00:02:42;;;;;;;13.37;8.70;;;20.60;77.70;;;;;;5054363;28;20483;-49
2021/06/10 00:05:10;;;;;;;10.53;7.57;;;20.60;77.90;;;;;;5054272;28;20443;-49
2021/06/10 00:07:37;;;;;;;10.80;7.27;;;20.60;78.00;;;;;;5054297;28;20480;-48
2021/06/10 00:10:05;;;;;;;13.40;7.90;;;20.30;77.70;;;;;;5052783;28;20802;-49
2021/06/10 00:12:31;;;;;;;9.07;6.10;;;20.60;78.20;;;;;;5052635;28;20446;-49
2021/06/10 00:14:59;;;;;;;8.97;6.97;;;20.60;78.40;;;;;;5052787;28;20433;-48
2021/06/10 00:17:25;;;;;;;7.70;6.20;;;20.60;78.50;;;;;;5052135;28;20816;-49
2021/06/10 00:19:51;;;;;;;10.33;5.93;;;20.50;78.60;;;;;;5051584;28;20479;-49
2021/06/10 00:22:19;;;;;;;10.87;6.47;;;20.50;78.80;;;;;;5051871;28;20446;-49
2021/06/10 00:24:45;;;;;;;11.33;7.40;;;20.50;79.20;;;;;;5051613;28;20463;-49
2021/06/10 00:27:11;;;;;;;7.67;6.50;;;20.50;79.60;;;;;;5051716;28;20435;-49
2021/06/10 00:29:37;;;;;;;8.23;6.17;;;20.50;79.60;;;;;;5052131;28;21032;-49
2021/06/10 00:32:06;;;;;;;9.43;6.87;;;20.40;79.80;;;;;;5053479;28;20992;-49
2021/06/10 00:34:32;;;;;;;14.90;6.20;;;20.40;80.00;;;;;;5051780;28;20852;-49
2021/06/10 00:36:58;;;;;;;13.20;7.07;;;20.40;80.10;;;;;;5052798;28;21048;-47
2021/06/10 00:39:24;;;;;;;7.90;6.03;;;20.30;80.20;;;;;;5055495;28;20475;-48
2021/06/10 00:41:50;;;;;;;10.10;6.90;;;20.30;80.40;;;;;;5055542;28;20450;-49
2021/06/10 00:44:17;;;;;;;9.50;6.90;;;20.30;80.60;;;;;;5056088;28;20438;-49
2021/06/10 00:46:43;;;;;;;12.30;6.73;;;20.20;80.80;;;;;;5055675;28;20525;-49
2021/06/10 00:49:10;;;;;;;10.03;6.00;;;20.20;80.90;;;;;;5053915;28;20969;-49
2021/06/10 00:51:38;;;;;;;10.90;6.60;;;20.20;81.00;;;;;;5055411;28;20882;-49
2021/06/10 00:54:05;;;;;;;8.70;6.13;;;20.20;81.10;;;;;;5055416;28;20437;-49
2021/06/10 00:56:32;;;;;;;10.43;6.40;;;20.10;81.30;;;;;;5055321;28;20433;-49
2021/06/10 00:58:59;;;;;;;8.10;6.07;;;20.10;81.50;;;;;;5055141;28;20475;-49
2021/06/10 01:01:25;;;;;;;8.03;6.00;;;20.10;81.50;;;;;;5054979;28;20454;-49
2021/06/10 01:03:51;;;;;;;7.73;5.83;;;20.00;81.60;;;;;;5055155;28;20533;-49
2021/06/10 01:06:25;;;;;;;9.73;6.80;;;20.20;82.20;;;;;;5055113;28;20434;-49
2021/06/10 01:08:58;;;;;;;7.07;6.37;;;20.00;82.10;;;;;;5054717;28;20782;-49
2021/06/10 01:11:35;;;;;;;8.40;6.03;;;19.90;82.20;;;;;;5054843;28;20977;-49
2021/06/10 01:14:10;;;;;;;8.20;6.20;;;19.90;82.50;;;;;;5053578;28;20453;-50
2021/06/10 01:16:39;;;;;;;8.87;7.43;;;19.90;82.60;;;;;;5055010;28;20430;-49
2021/06/10 01:19:11;;;;;;;9.63;6.10;;;19.80;82.70;;;;;;5054450;28;20481;-49
2021/06/10 01:21:42;;;;;;;11.30;6.40;;;19.80;83.00;;;;;;5054753;28;20537;-49
2021/06/10 01:24:23;;;;;;;7.50;6.57;;;19.90;83.50;;;;;;5054819;28;20936;-49
2021/06/10 01:26:55;;;;;;;8.00;6.83;;;19.90;83.90;;;;;;5054799;28;20435;-49
2021/06/10 01:29:24;;;;;;;7.70;6.20;;;19.80;84.00;;;;;;5054449;28;20483;-49
2021/06/10 01:31:51;;;;;;;9.23;6.20;;;19.80;84.30;;;;;;5054461;28;20451;-48
2021/06/10 01:34:19;;;;;;;24.47;7.57;;;19.80;84.50;;;;;;5054565;28;20947;-49
2021/06/10 01:36:47;;;;;;;10.50;7.23;;;20.00;85.10;;;;;;5054551;28;20436;-49
2021/06/10 01:39:21;;;;;;;9.33;6.60;;;19.90;85.20;;;;;;5054058;28;20568;-49
2021/06/10 01:41:47;;;;;;;7.60;5.70;;;19.90;85.20;;;;;;5054484;28;20460;-49
2021/06/10 01:44:15;;;;;;;10.43;6.47;;;19.80;85.10;;;;;;5056577;28;20438;-49
2021/06/10 01:46:43;;;;;;;7.90;6.20;;;19.80;85.00;;;;;;5054934;28;20429;-49
2021/06/10 01:49:11;;;;;;;10.80;6.60;;;19.60;85.60;;;;;;5053860;28;20435;-50
2021/06/10 01:51:38;;;;;;;7.77;5.70;;;20.00;85.60;;;;;;5054086;28;20462;-49
2021/06/10 01:54:07;;;;;;;11.43;7.40;;;19.90;85.50;;;;;;5054195;28;20440;-49
2021/06/10 01:56:34;;;;;;;9.90;7.07;;;19.80;85.50;;;;;;5054208;28;20927;-49
2021/06/10 01:59:01;;;;;;;11.80;6.50;;;19.70;85.50;;;;;;5053650;28;20504;-49
2021/06/10 02:01:29;;;;;;;8.40;5.93;;;19.80;85.60;;;;;;5052711;28;21116;-50
2021/06/10 02:03:59;;;;;;;10.13;5.50;;;19.80;85.70;;;;;;5054186;28;20449;-49
2021/06/10 02:06:26;;;;;;;7.37;6.00;;;19.70;85.80;;;;;;5054088;28;20497;-48
2021/06/10 02:08:54;;;;;;;12.37;6.77;;;20.00;86.30;;;;;;5053648;28;20437;-49
2021/06/10 02:11:21;;;;;;;8.40;6.10;;;19.70;85.90;;;;;;5053876;28;20453;-49
2021/06/10 02:13:48;;;;;;;6.83;5.53;;;19.70;86.00;;;;;;5053761;28;20445;-49
2021/06/10 02:16:16;;;;;;;6.33;5.67;;;19.50;85.90;;;;;;5053936;28;20481;-47
2021/06/10 02:18:46;;;;;;;6.13;5.53;;;19.70;86.30;;;;;;5053384;28;20466;-47
2021/06/10 02:21:15;;;;;;;13.90;6.80;;;19.70;86.40;;;;;;5053593;28;20453;-47
2021/06/10 02:23:44;;;;;;;6.73;6.00;;;19.40;86.30;;;;;;5054120;28;20442;-48
2021/06/10 02:26:11;;;;;;;5.97;5.47;;;19.70;87.50;;;;;;5053737;28;20495;-48
2021/06/10 02:28:38;;;;;;;10.53;6.00;;;19.70;87.00;;;;;;5053669;28;20437;-47
2021/06/10 02:31:05;;;;;;;7.43;5.67;;;19.90;87.60;;;;;;5053689;28;20488;-47
2021/06/10 02:33:32;;;;;;;7.30;6.60;;;19.60;87.40;;;;;;5052450;28;20453;-47
2021/06/10 02:35:58;;;;;;;9.20;6.53;;;19.70;87.70;;;;;;5052487;28;20446;-47
2021/06/10 02:38:28;;;;;;;5.90;5.07;;;19.60;87.70;;;;;;5053491;28;20529;-47
2021/06/10 02:40:56;;;;;;;9.73;7.23;;;19.70;88.30;;;;;;5053547;28;20958;-48
2021/06/10 02:43:23;;;;;;;11.77;6.23;;;19.70;88.00;;;;;;5052345;28;20442;-49
2021/06/10 02:45:51;;;;;;;10.87;6.67;;;19.90;88.50;;;;;;5052885;28;20446;-48
2021/06/10 02:48:18;;;;;;;10.93;7.13;;;19.70;88.40;;;;;;5052926;28;20431;-48
2021/06/10 02:50:47;;;;;;;7.70;6.10;;;19.70;88.40;;;;;;5052953;28;20495;-48
2021/06/10 02:53:15;;;;;;;8.00;7.00;;;19.80;88.70;;;;;;5053630;28;20480;-48
2021/06/10 02:55:45;;;;;;;12.63;7.07;;;19.80;88.70;;;;;;5053021;28;20997;-48
2021/06/10 02:58:15;;;;;;;12.53;6.93;;;19.80;88.90;;;;;;5054382;28;20480;-47
2021/06/10 03:00:42;;;;;;;12.20;7.10;;;20.00;90.00;;;;;;5052878;28;20487;-48
2021/06/10 03:03:12;;;;;;;11.40;6.83;;;19.90;89.10;;;;;;5052914;28;20441;-49
2021/06/10 03:05:40;;;;;;;11.23;6.43;;;19.90;89.20;;;;;;5052972;28;20427;-48
2021/06/10 03:08:07;;;;;;;12.20;6.47;;;20.10;89.60;;;;;;5052478;28;20859;-48
2021/06/10 03:10:34;;;;;;;9.37;6.80;;;20.00;89.50;;;;;;5052612;28;20932;-47
2021/06/10 03:13:03;;;;;;;14.30;7.03;;;20.00;90.00;;;;;;5052491;28;20461;-47
2021/06/10 03:15:30;;;;;;;10.80;6.60;;;19.70;89.60;;;;;;5052400;28;20434;-47
2021/06/10 03:17:57;;;;;;;7.70;6.83;;;20.00;89.90;;;;;;5052676;28;20427;-48
2021/06/10 03:20:24;;;;;;;11.33;6.73;;;20.10;89.80;;;;;;5052304;28;20484;-47
2021/06/10 03:22:52;;;;;;;9.60;7.30;;;20.10;89.70;;;;;;5052487;28;20930;-47
2021/06/10 03:25:20;;;;;;;10.17;6.50;;;20.10;89.50;;;;;;5052448;28;20489;-47
2021/06/10 03:27:47;;;;;;;8.23;7.43;;;19.90;89.00;;;;;;5052616;28;20439;-47
2021/06/10 03:30:16;;;;;;;8.10;7.30;;;20.10;89.00;;;;;;5052035;28;20491;-47
2021/06/10 03:32:43;;;;;;;11.40;7.07;;;20.10;88.90;;;;;;5052642;28;20563;-48
2021/06/10 03:35:11;;;;;;;7.37;6.67;;;20.10;88.60;;;;;;5051036;28;20840;-47
2021/06/10 03:37:39;;;;;;;7.80;7.07;;;20.00;88.20;;;;;;5052236;28;20528;-47
2021/06/10 03:40:08;;;;;;;9.87;7.70;;;20.00;88.10;;;;;;5050434;28;20485;-47
2021/06/10 03:42:36;;;;;;;7.60;6.50;;;19.90;88.00;;;;;;5052169;28;20449;-47
2021/06/10 03:45:03;;;;;;;7.33;6.70;;;19.80;87.70;;;;;;5052120;28;20433;-47
2021/06/10 03:47:32;;;;;;;8.03;7.33;;;19.90;88.10;;;;;;5051985;28;20434;-47
2021/06/10 03:49:59;;;;;;;6.33;5.83;;;20.00;88.30;;;;;;5051691;28;20433;-47
2021/06/10 03:52:27;;;;;;;7.60;6.80;;;19.70;88.20;;;;;;5052098;28;20518;-46
2021/06/10 03:54:53;;;;;;;7.20;6.60;;;19.70;88.10;;;;;;5052010;28;20433;-48
2021/06/10 03:57:19;;;;;;;7.53;6.70;;;19.70;88.10;;;;;;5051989;28;20525;-48
2021/06/10 03:59:46;;;;;;;6.83;5.93;;;19.70;88.10;;;;;;5051644;28;20473;-48
2021/06/10 04:02:12;;;;;;;6.70;6.00;;;20.10;88.50;;;;;;5051599;28;20454;-47
2021/06/10 04:04:39;;;;;;;9.23;6.83;;;19.80;88.20;;;;;;5051963;28;20489;-48
2021/06/10 04:07:05;;;;;;;6.57;6.00;;;19.40;87.80;;;;;;5051722;28;20440;-48
2021/06/10 04:09:31;;;;;;;7.80;7.10;;;19.40;87.90;;;;;;5051345;28;20438;-48
2021/06/10 04:11:58;;;;;;;11.70;10.17;;;19.50;88.10;;;;;;5052609;28;20463;-48
2021/06/10 04:14:24;;;;;;;7.10;6.30;;;19.50;88.30;;;;;;5052330;28;20429;-49
2021/06/10 04:16:50;;;;;;;13.57;7.47;;;19.40;88.20;;;;;;5051499;28;20449;-47
2021/06/10 04:19:16;;;;;;;7.60;6.93;;;19.10;87.80;;;;;;5051934;28;20470;-48
2021/06/10 04:21:44;;;;;;;8.57;7.77;;;19.40;87.90;;;;;;5051516;28;20862;-46
2021/06/10 04:24:10;;;;;;;7.57;6.90;;;19.60;87.80;;;;;;5051433;28;20476;-49
2021/06/10 04:26:37;;;;;;;9.37;7.07;;;19.70;87.70;;;;;;5051362;28;20525;-47
2021/06/10 04:29:03;;;;;;;8.43;7.70;;;19.60;87.30;;;;;;5051327;28;20431;-48
2021/06/10 04:31:29;;;;;;;8.00;6.53;;;19.80;87.50;;;;;;5051605;28;20970;-47
2021/06/10 04:33:56;;;;;;;21.00;8.67;;;19.90;87.20;;;;;;5051460;28;20721;-48
2021/06/10 04:36:22;;;;;;;7.80;7.03;;;20.00;86.90;;;;;;5051472;28;20436;-49
2021/06/10 04:38:50;;;;;;;7.67;6.97;;;20.10;86.80;;;;;;5051197;28;20474;-49
2021/06/10 04:41:17;;;;;;;6.87;5.97;;;20.20;86.60;;;;;;5051625;28;20449;-48
2021/06/10 04:43:43;;;;;;;9.40;7.77;;;19.80;85.90;;;;;;5051463;28;20533;-47
2021/06/10 04:46:09;;;;;;;9.40;7.20;;;20.20;86.40;;;;;;5051319;28;20916;-48
2021/06/10 04:48:37;;;;;;;9.50;7.33;;;20.20;86.20;;;;;;5050743;28;20453;-47
2021/06/10 04:53:30;;;;;;;8.87;8.03;;;20.30;86.00;;;;;;5007407;28;20795;-51
2021/06/10 04:55:57;;;;;;;8.70;6.87;;;20.30;85.90;;;;;;5010220;28;20523;-51
2021/06/10 04:58:23;;;;;;;12.77;7.27;;;20.30;85.30;;;;;;5009790;28;20864;-51
2021/06/10 05:00:50;;;;;;;9.13;8.23;;;20.20;84.70;;;;;;5010208;28;20513;-50
2021/06/10 05:03:21;;;;;;;8.27;6.70;;;20.60;84.60;;;;;;5010191;28;20491;-51
2021/06/10 05:05:48;;;;;;;8.07;7.30;;;20.70;84.30;;;;;;5010548;28;20842;-51
2021/06/10 05:08:14;;;;;;;12.07;7.50;;;20.90;83.90;;;;;;5009884;28;20430;-50
2021/06/10 05:10:40;;;;;;;9.70;7.70;;;21.10;83.40;;;;;;5009911;28;20525;-51
2021/06/10 05:13:08;;;;;;;7.00;6.30;;;21.20;82.90;;;;;;5009971;28;20557;-51
2021/06/10 05:15:34;;;;;;;8.67;7.13;;;21.50;82.40;;;;;;5008627;28;20544;-51
2021/06/10 05:18:00;;;;;;;10.27;6.90;;;21.70;81.40;;;;;;5009648;28;20930;-51
2021/06/10 05:20:27;;;;;;;11.73;6.77;;;21.90;80.80;;;;;;5009931;28;20482;-52
2021/06/10 05:22:53;;;;;;;11.40;6.60;;;22.10;80.00;;;;;;5010174;28;20532;-50
2021/06/10 05:25:19;;;;;;;8.63;6.90;;;22.20;80.10;;;;;;5013299;28;20939;-51
2021/06/10 05:27:45;;;;;;;6.70;6.10;;;22.20;78.80;;;;;;5013654;28;20588;-51
2021/06/10 05:30:14;;;;;;;9.00;6.30;;;22.30;78.70;;;;;;5013304;28;20463;-51
2021/06/10 05:32:40;;;;;;;10.60;6.70;;;22.50;78.30;;;;;;5013523;28;20513;-58
2021/06/10 05:35:07;;;;;;;6.23;5.63;;;22.60;77.80;;;;;;5013045;28;20865;-50
2021/06/10 05:37:33;;;;;;;7.17;6.13;;;22.50;77.10;;;;;;5012701;28;20434;-51
2021/06/10 05:39:59;;;;;;;7.30;6.60;;;23.00;77.10;;;;;;5012377;28;20479;-50
2021/06/10 05:42:26;;;;;;;8.30;5.80;;;23.00;76.60;;;;;;5011228;28;20483;-51
2021/06/10 05:44:52;;;;;;;6.70;5.80;;;23.10;76.20;;;;;;5012765;28;20834;-50
2021/06/10 05:47:19;;;;;;;10.07;6.10;;;23.10;75.60;;;;;;5012207;28;20447;-51
2021/06/10 05:49:46;;;;;;;8.00;6.37;;;23.10;75.20;;;;;;5012528;28;20528;-50
2021/06/10 05:52:12;;;;;;;8.70;6.10;;;23.20;75.40;;;;;;5021493;28;20971;-51
2021/06/10 05:54:38;;;;;;;6.50;5.90;;;23.30;75.20;;;;;;5047784;28;20460;-51
2021/06/10 05:57:05;;;;;;;10.90;6.30;;;23.40;74.80;;;;;;5032582;28;20422;-51
2021/06/10 05:59:31;;;;;;;8.00;6.63;;;23.50;74.50;;;;;;5032714;28;20529;-52
2021/06/10 06:01:58;;;;;;;11.50;6.40;;;23.50;74.20;;;;;;5030858;28;20476;-52
2021/06/10 06:04:25;;;;;;;7.93;7.03;;;23.50;73.90;;;;;;5030819;28;20957;-52
2021/06/10 06:06:51;;;;;;;9.03;6.60;;;23.60;73.70;;;;;;5032107;28;20436;-51
2021/06/10 06:09:18;;;;;;;10.87;6.30;;;23.70;73.60;;;;;;5032099;28;20428;-50
2021/06/10 06:11:44;;;;;;;8.17;6.17;;;23.80;73.30;;;;;;5032232;28;20524;-52
2021/06/10 06:14:12;;;;;;;6.80;5.50;;;23.90;73.10;;;;;;5047513;28;20454;-51
2021/06/10 06:16:41;;;;;;;7.10;6.00;;;24.00;72.80;;;;;;5032404;28;20532;-52
2021/06/10 06:19:08;;;;;;;23.73;6.90;;;24.10;72.30;;;;;;5032146;28;20557;-52
2021/06/10 06:21:36;;;;;;;11.33;6.00;;;24.20;72.00;;;;;;5031956;28;20787;-52
2021/06/10 06:24:04;;;;;;;15.83;6.27;;;24.10;71.20;;;;;;5032025;28;20445;-52
2021/06/10 06:26:30;;;;;;;8.77;7.87;;;24.40;71.20;;;;;;5031678;28;20825;-52
2021/06/10 06:28:59;;;;;;;7.10;5.70;;;24.40;70.60;;;;;;5031487;28;20469;-51
2021/06/10 06:31:26;;;;;;;10.13;5.20;;;24.30;70.30;;;;;;5032060;28;20856;-52
2021/06/10 06:33:52;;;;;;;10.10;5.50;;;24.30;70.60;;;;;;5029822;28;20466;-52
2021/06/10 06:36:19;;;;;;;7.33;6.60;;;24.20;70.60;;;;;;5031063;28;20438;-51
2021/06/10 06:38:48;;;;;;;8.60;5.57;;;24.20;70.30;;;;;;5031190;28;20443;-51
2021/06/10 06:41:14;;;;;;;6.27;5.30;;;24.20;70.10;;;;;;5046747;28;20505;-51
2021/06/10 06:43:40;;;;;;;5.97;4.43;;;24.20;69.90;;;;;;5031726;28;20443;-52
2021/06/10 06:46:11;;;;;;;6.30;5.20;;;24.20;69.60;;;;;;5031261;28;20439;-51
2021/06/10 06:48:37;;;;;;;5.40;4.67;;;24.30;69.50;;;;;;5031358;28;20778;-51
2021/06/10 06:51:04;;;;;;;6.80;6.13;;;24.40;69.00;;;;;;5031660;28;20505;-52
2021/06/10 06:53:30;;;;;;;9.80;5.20;;;24.40;69.00;;;;;;5031531;28;20463;-52
2021/06/10 06:55:58;;;;;;;5.50;4.57;;;24.50;69.00;;;;;;5047067;28;20485;-51
2021/06/10 06:58:25;;;;;;;6.00;4.23;;;24.60;67.90;;;;;;5031386;28;20925;-51
2021/06/10 07:00:52;;;;;;;7.13;3.60;;;24.60;67.40;;;;;;5031429;28;20484;-51
2021/06/10 07:03:19;;;;;;;4.77;4.20;;;24.50;67.00;;;;;;5046810;28;20495;-52
2021/06/10 07:05:45;;;;;;;8.30;4.60;;;24.50;67.80;;;;;;5029745;28;20860;-51
2021/06/10 07:08:11;;;;;;;4.23;3.80;;;24.60;68.30;;;;;;5031098;28;20490;-51
2021/06/10 07:10:37;;;;;;;5.50;4.03;;;24.50;67.70;;;;;;5031421;28;20613;-52
2021/06/10 07:13:05;;;;;;;6.83;4.90;;;24.50;67.80;;;;;;5031469;28;20853;-52
2021/06/10 07:15:32;;;;;;;7.17;4.00;;;24.60;67.80;;;;;;5031204;28;21009;-52
2021/06/10 07:17:58;;;;;;;7.70;4.00;;;24.70;67.60;;;;;;5046207;28;20848;-50
2021/06/10 07:20:25;;;;;;;6.20;4.70;;;24.70;67.40;;;;;;5030899;28;20492;-52
2021/06/10 07:22:51;;;;;;;4.13;3.80;;;24.70;67.60;;;;;;5030909;28;20465;-51
2021/06/10 07:25:18;;;;;;;11.13;4.23;;;24.60;67.60;;;;;;5031172;28;20471;-52
2021/06/10 07:27:45;;;;;;;10.37;4.50;;;24.70;68.20;;;;;;5029827;28;20461;-52
2021/06/10 07:30:13;;;;;;;6.63;4.47;;;24.50;67.90;;;;;;5030679;28;20446;-52
2021/06/10 07:32:40;;;;;;;10.00;9.00;;;24.50;67.20;;;;;;5046060;28;20489;-50
2021/06/10 07:35:08;;;;;;;8.50;5.33;;;24.60;67.30;;;;;;5030817;28;20530;-51
2021/06/10 07:37:34;;;;;;;9.03;4.33;;;24.70;67.80;;;;;;5030933;28;20795;-51
2021/06/10 07:40:00;;;;;;;6.80;4.57;;;24.70;68.20;;;;;;5030069;28;20576;-51
2021/06/10 07:42:27;;;;;;;6.07;4.57;;;24.70;68.10;;;;;;5030816;28;20466;-51
2021/06/10 07:44:53;;;;;;;6.53;5.50;;;24.80;67.70;;;;;;5030661;28;20508;-51
2021/06/10 07:47:21;;;;;;;9.60;5.97;;;24.80;66.30;;;;;;5030243;28;20447;-51
2021/06/10 07:49:47;;;;;;;8.30;5.50;;;24.80;65.30;;;;;;5030110;28;20450;-51
2021/06/10 07:52:13;;;;;;;6.73;5.90;;;24.80;65.30;;;;;;5030410;28;20559;-51
2021/06/10 07:54:39;;;;;;;5.77;5.27;;;24.80;64.90;;;;;;5030503;28;20432;-50
2021/06/10 07:57:06;;;;;;;7.00;6.43;;;24.80;65.20;;;;;;5030346;28;20442;-51
2021/06/10 07:59:33;;;;;;;8.53;5.63;;;24.80;64.80;;;;;;5030270;28;20481;-51
2021/06/10 08:01:59;;;;;;;7.10;5.67;;;24.90;64.70;;;;;;5030482;28;20479;-51
2021/06/10 08:04:27;;;;;;;6.10;5.50;;;24.90;65.00;;;;;;5030810;28;20482;-51
2021/06/10 08:06:53;;;;;;;10.10;5.90;;;24.90;65.30;;;;;;5030616;28;20431;-51
2021/06/10 08:09:19;;;;;;;7.10;6.40;;;25.00;65.40;;;;;;5030304;28;20964;-51
2021/06/10 08:11:46;;;;;;;7.33;6.73;;;25.00;65.30;;;;;;5030502;28;20641;-51
2021/06/10 08:14:12;;;;;;;12.80;9.00;;;24.90;64.50;;;;;;5030038;28;20876;-51
2021/06/10 08:16:39;;;;;;;8.00;6.87;;;24.90;64.70;;;;;;5030195;28;20465;-51
2021/06/10 08:19:05;;;;;;;10.07;5.90;;;24.90;64.70;;;;;;5029989;28;20540;-51
2021/06/10 08:21:33;;;;;;;8.80;6.73;;;24.90;65.20;;;;;;5030444;28;20462;-51
2021/06/10 08:23:59;;;;;;;7.47;6.20;;;24.90;65.00;;;;;;5028998;28;20454;-52
2021/06/10 08:26:25;;;;;;;8.30;5.97;;;25.00;65.00;;;;;;5030408;28;20442;-52
2021/06/10 08:28:51;;;;;;;9.30;7.43;;;25.00;65.00;;;;;;5029891;28;20546;-51
2021/06/10 08:31:18;;;;;;;9.13;6.80;;;25.10;64.10;;;;;;5030371;28;20454;-51
2021/06/10 08:33:44;;;;;;;7.33;6.73;;;25.10;63.30;;;;;;5030300;28;20454;-50
2021/06/10 08:36:11;;;;;;;7.57;6.30;;;25.10;62.90;;;;;;5045323;28;20443;-52
2021/06/10 08:38:39;;;;;;;6.90;6.23;;;25.00;61.90;;;;;;5029314;28;20493;-52
2021/06/10 08:41:05;;;;;;;7.77;7.13;;;25.00;62.00;;;;;;5030120;28;20838;-51
2021/06/10 08:43:32;;;;;;;8.97;8.13;;;25.00;61.30;;;;;;5030165;28;20442;-52
2021/06/10 08:46:01;;;;;;;9.23;6.83;;;25.10;61.60;;;;;;5030537;28;20435;-51
2021/06/10 08:48:31;;;;;;;7.00;6.30;;;25.10;61.80;;;;;;5045243;28;20873;-51
2021/06/10 08:50:58;;;;;;;8.00;7.23;;;25.10;61.70;;;;;;5030611;28;20527;-51
2021/06/10 08:53:25;;;;;;;6.63;6.10;;;25.10;62.10;;;;;;5029153;28;20512;-52
2021/06/10 08:55:55;;;;;;;10.40;7.57;;;25.20;62.40;;;;;;5030350;28;20440;-51
2021/06/10 08:58:21;;;;;;;7.40;6.40;;;25.20;62.40;;;;;;5031435;28;20460;-51
2021/06/10 09:01:16;;;;;;;7.20;6.37;;;25.20;62.60;;;;;;5034237;28;20476;-52
2021/06/10 09:03:43;;;;;;;7.00;6.30;;;25.20;62.10;;;;;;5032615;28;20486;-51
2021/06/10 09:06:11;;;;;;;7.10;6.47;;;25.20;62.30;;;;;;5034423;28;20486;-52
2021/06/10 09:08:39;;;;;;;7.90;7.10;;;25.20;61.90;;;;;;5031741;28;20889;-52
2021/06/10 09:11:11;;;;;;;6.90;6.30;;;25.20;61.70;;;;;;5033679;28;20774;-55
2021/06/10 09:13:45;;;;;;;9.27;5.60;;;25.20;62.00;;;;;;5033716;28;20435;-52
2021/06/10 09:16:25;;;;;;;6.97;6.33;;;25.30;61.90;;;;;;5032118;28;20451;-51
2021/06/10 09:18:59;;;;;;;6.73;6.13;;;25.40;60.80;;;;;;5033269;28;20633;-52
2021/06/10 09:21:27;;;;;;;6.70;6.00;;;25.30;61.20;;;;;;5032219;28;20493;-52
2021/06/10 09:23:54;;;;;;;8.27;7.47;;;25.40;61.70;;;;;;5033531;28;20431;-51
2021/06/10 09:26:22;;;;;;;9.93;6.67;;;25.30;61.00;;;;;;5033374;28;20434;-51
2021/06/10 09:28:51;;;;;;;7.63;7.03;;;25.20;61.00;;;;;;5033209;28;20807;-51
2021/06/10 09:31:32;;;;;;;7.60;6.90;;;25.20;60.90;;;;;;5033396;28;20424;-51
2021/06/10 09:33:59;;;;;;;7.40;6.70;;;25.30;60.90;;;;;;5033082;28;20435;-51
2021/06/10 09:36:25;;;;;;;7.03;6.33;;;25.20;60.70;;;;;;5033214;28;20450;-51
2021/06/10 09:39:10;;;;;;;8.10;6.47;;;25.30;60.70;;;;;;5033030;28;20488;-51
2021/06/10 09:41:59;;;;;;;8.20;6.70;;;25.30;60.10;;;;;;5032892;28;20455;-51
2021/06/10 09:44:43;;;;;;;7.73;7.00;;;25.30;59.10;;;;;;5033041;28;20435;-51
2021/06/10 09:47:10;;;;;;;7.93;7.20;;;25.30;58.10;;;;;;5032680;28;20440;-52
2021/06/10 09:49:36;;;;;;;6.70;6.20;;;25.30;58.50;;;;;;5032773;28;20486;-51
2021/06/10 09:52:04;;;;;;;8.70;6.50;;;25.30;58.00;;;;;;5032789;28;20546;-51
2021/06/10 09:54:44;;;;;;;7.37;6.47;;;25.50;57.40;;;;;;5033155;28;20780;-52
2021/06/10 09:57:15;;;;;;;6.47;5.70;;;25.60;57.00;;;;;;5033117;28;20538;-52
2021/06/10 09:59:51;;;;;;;5.93;5.40;;;25.60;57.80;;;;;;5033325;28;20551;-51
2021/06/10 10:02:23;;;;;;;7.13;5.97;;;25.60;58.10;;;;;;5032820;28;20463;-52
2021/06/10 10:05:06;;;;;;;7.20;5.70;;;25.70;57.20;;;;;;5032970;28;20443;-52
2021/06/10 10:07:35;;;;;;;5.67;5.17;;;25.70;55.90;;;;;;5032566;28;20594;-52
2021/06/10 10:10:04;;;;;;;7.33;5.50;;;25.50;55.50;;;;;;5030434;28;20792;-51
2021/06/10 10:12:39;;;;;;;4.50;4.10;;;25.50;56.10;;;;;;5032284;28;20466;-51
2021/06/10 10:15:06;;;;;;;4.87;4.47;;;25.40;56.70;;;;;;5032322;28;20435;-51
2021/06/10 10:17:33;;;;;;;5.63;4.83;;;25.50;56.90;;;;;;5032412;28;20427;-51
2021/06/10 10:19:59;;;;;;;5.20;4.80;;;25.50;57.00;;;;;;5031940;28;20479;-52
2021/06/10 10:22:25;;;;;;;5.80;5.17;;;25.40;56.90;;;;;;5032057;28;20452;-52
2021/06/10 10:24:53;;;;;;;5.17;4.77;;;25.50;56.90;;;;;;5031942;28;20484;-52
2021/06/10 10:27:21;;;;;;;5.10;4.67;;;25.50;56.30;;;;;;5031926;28;20440;-52
2021/06/10 10:29:49;;;;;;;6.43;5.17;;;25.60;55.60;;;;;;5031809;28;20442;-52
2021/06/10 10:32:22;;;;;;;6.67;5.20;;;25.50;55.70;;;;;;5031883;28;20482;-52
2021/06/10 10:34:48;;;;;;;5.73;5.13;;;25.50;55.50;;;;;;5032102;28;20436;-52
2021/06/10 10:37:18;;;;;;;5.90;4.87;;;25.50;56.00;;;;;;5031779;28;20427;-52
2021/06/10 10:39:44;;;;;;;5.47;4.80;;;25.60;56.30;;;;;;5031432;28;20474;-52
2021/06/10 10:42:25;;;;;;;7.80;4.70;;;25.60;56.60;;;;;;5031962;28;20455;-52
2021/06/10 10:45:09;;;;;;;17.00;4.70;;;25.60;56.40;;;;;;5031763;28;20949;-52
2021/06/10 10:47:44;;;;;;;8.60;5.37;;;25.70;56.50;;;;;;5031624;28;20445;-52
2021/06/10 10:50:17;;;;;;;8.40;5.33;;;25.70;56.20;;;;;;5031469;28;20474;-52
2021/06/10 10:52:53;;;;;;;4.93;4.40;;;25.60;55.70;;;;;;5055742;23;20502;-50
2021/06/10 10:55:27;;;;;;;5.80;5.30;;;25.60;55.40;;;;;;5052674;28;20525;-50
2021/06/10 10:58:18;;;;;;;6.47;5.40;;;25.60;55.30;;;;;;5052384;28;20448;-49
2021/06/10 11:00:51;;;;;;;5.10;4.17;;;25.60;54.80;;;;;;5049400;28;20486;-49
2021/06/10 11:03:29;;;;;;;7.70;4.50;;;25.60;54.90;;;;;;5052488;28;20529;-49
2021/06/10 11:05:57;;;;;;;4.63;4.20;;;25.70;54.80;;;;;;5052552;28;20636;-49
2021/06/10 11:08:24;;;;;;;5.43;4.73;;;25.60;54.20;;;;;;5052107;28;20999;-50
2021/06/10 11:10:59;;;;;;;6.00;4.70;;;25.60;54.90;;;;;;5052421;28;20464;-49
2021/06/10 11:13:27;;;;;;;5.50;4.80;;;25.70;55.40;;;;;;5051924;28;20450;-50
2021/06/10 11:15:56;;;;;;;5.63;5.13;;;25.50;55.30;;;;;;5052198;28;20453;-50
2021/06/10 11:18:43;;;;;;;7.00;4.73;;;25.70;54.60;;;;;;5051455;28;20466;-50
2021/06/10 11:21:10;;;;;;;3.97;3.40;;;25.60;54.90;;;;;;5051150;28;20485;-49
2021/06/10 11:23:37;;;;;;;5.60;5.10;;;25.70;54.90;;;;;;5051835;28;20484;-49
2021/06/10 11:26:13;;;;;;;5.10;4.70;;;25.70;55.20;;;;;;5051745;28;20787;-50
2021/06/10 11:28:40;;;;;;;5.10;4.10;;;25.80;54.70;;;;;;5051224;28;20513;-50
2021/06/10 11:31:15;;;;;;;6.40;3.60;;;25.80;54.40;;;;;;5051331;28;20466;-50
2021/06/10 11:33:42;;;;;;;6.63;4.40;;;25.90;54.20;;;;;;5051768;28;20462;-51
2021/06/10 11:36:09;;;;;;;4.93;4.43;;;25.90;54.40;;;;;;5051717;28;20804;-50
2021/06/10 11:38:39;;;;;;;4.83;4.30;;;25.90;54.10;;;;;;5051442;28;20496;-49
2021/06/10 11:41:06;;;;;;;6.20;3.60;;;26.10;53.80;;;;;;5051676;28;20485;-50
2021/06/10 11:43:34;;;;;;;5.60;4.80;;;25.90;53.60;;;;;;5051557;28;20454;-49
2021/06/10 11:46:02;;;;;;;5.00;3.97;;;26.00;53.70;;;;;;5051695;28;20443;-51
2021/06/10 11:48:37;;;;;;;6.17;3.73;;;26.30;54.10;;;;;;5049946;28;20442;-50
2021/06/10 11:51:04;;;;;;;5.13;4.70;;;26.20;54.10;;;;;;5051253;28;20818;-48
2021/06/10 11:53:31;;;;;;;4.50;4.10;;;26.20;54.50;;;;;;5051348;28;20485;-48
2021/06/10 11:55:58;;;;;;;5.13;4.50;;;26.20;54.00;;;;;;5051402;28;20431;-49
2021/06/10 11:58:26;;;;;;;4.20;3.90;;;26.20;53.50;;;;;;5051110;28;20965;-47
2021/06/10 12:00:53;;;;;;;4.50;4.10;;;26.10;53.60;;;;;;5051226;28;20471;-48
2021/06/10 12:03:20;;;;;;;6.90;4.30;;;26.30;53.90;;;;;;5051343;28;20461;-50
2021/06/10 12:05:50;;;;;;;6.40;4.03;;;26.20;53.50;;;;;;5051206;28;20442;-48
2021/06/10 12:08:19;;;;;;;5.73;4.20;;;26.40;53.80;;;;;;5051057;28;20431;-49
2021/06/10 12:10:54;;;;;;;13.03;4.53;;;26.50;53.60;;;;;;5051345;28;20792;-48
2021/06/10 12:13:29;;;;;;;5.33;3.50;;;26.30;53.40;;;;;;5050906;28;20490;-49
2021/06/10 12:15:55;;;;;;;4.47;4.07;;;26.40;53.30;;;;;;5051024;28;20437;-47
2021/06/10 12:18:22;;;;;;;5.33;3.83;;;26.30;52.80;;;;;;5050896;28;20426;-48
2021/06/10 12:20:51;;;;;;;4.27;3.87;;;26.40;53.20;;;;;;5051272;28;20561;-50
2021/06/10 12:23:20;;;;;;;7.13;4.50;;;26.30;52.90;;;;;;5050815;28;20478;-49
2021/06/10 12:25:51;;;;;;;4.80;4.17;;;26.20;53.00;;;;;;5050099;28;20855;-47
2021/06/10 12:28:35;;;;;;;7.10;4.30;;;26.40;53.20;;;;;;5050851;28;20466;-48
2021/06/10 12:31:08;;;;;;;4.03;3.73;;;26.40;53.20;;;;;;5050790;28;20935;-48
2021/06/10 12:33:36;;;;;;;7.33;4.17;;;26.40;53.10;;;;;;5054728;28;20462;-48
2021/06/10 12:36:04;;;;;;;4.53;4.10;;;26.40;53.00;;;;;;5055077;28;20557;-50
2021/06/10 12:38:33;;;;;;;4.57;4.00;;;26.40;52.60;;;;;;5054893;28;20522;-48
2021/06/10 12:41:15;;;;;;;4.80;4.30;;;26.40;52.10;;;;;;5055170;28;20512;-47
2021/06/10 12:43:42;;;;;;;8.60;4.17;;;26.40;51.60;;;;;;5055228;28;20534;-50
2021/06/10 12:46:09;;;;;;;4.13;3.83;;;26.40;52.20;;;;;;5054709;28;20472;-47
2021/06/10 12:48:35;;;;;;;4.37;3.97;;;26.30;51.80;;;;;;5054426;28;20488;-47
2021/06/10 12:51:24;;;;;;;5.23;4.50;;;26.50;52.20;;;;;;5054957;28;20461;-48
2021/06/10 12:54:01;;;;;;;5.10;4.70;;;26.60;52.40;;;;;;5054362;28;20446;-47